createdAt,value
2023-05-17T00:01:44.063Z,10.19
2023-05-17T00:04:47.863Z,10.34
2023-05-17T00:07:52.407Z,10.49
2023-05-17T00:10:56.284Z,10.49
2023-05-17T00:14:00.335Z,10.50
2023-05-17T00:17:04.472Z,10.72
2023-05-17T00:20:08.891Z,10.78
2023-05-17T00:23:12.634Z,10.72
2023-05-17T00:26:16.832Z,10.86
2023-05-17T00:29:21.085Z,10.80
2023-05-17T00:32:25.394Z,10.91
2023-05-17T00:35:29.462Z,11.19
2023-05-17T00:38:33.818Z,11.25
2023-05-17T00:41:37.722Z,11.45
2023-05-17T00:44:42.227Z,11.58
2023-05-17T00:47:46.402Z,11.77
2023-05-17T00:50:50.592Z,11.88
2023-05-17T00:53:54.364Z,11.85
2023-05-17T00:57:00.430Z,11.97
2023-05-17T01:00:04.990Z,12.34
2023-05-17T01:03:09.156Z,12.37
2023-05-17T01:06:13.039Z,12.57
2023-05-17T01:09:18.136Z,12.96
2023-05-17T01:12:33.871Z,13.38
2023-05-17T01:15:43.146Z,13.50
2023-05-17T01:18:54.842Z,13.74
2023-05-17T01:22:26.601Z,14.15
2023-05-17T01:25:36.698Z,14.17
2023-05-17T01:28:42.786Z,14.30
2023-05-17T01:31:46.856Z,14.20
2023-05-17T01:34:50.921Z,14.42
2023-05-17T01:37:54.941Z,14.82
2023-05-17T01:41:02.883Z,14.99
2023-05-17T01:44:34.086Z,15.49
2023-05-17T01:47:48.946Z,15.76
2023-05-17T01:50:55.494Z,15.90
2023-05-17T01:54:10.343Z,16.01
2023-05-17T01:57:17.208Z,16.52
2023-05-17T02:00:24.473Z,17.46
2023-05-17T02:03:29.782Z,17.76
2023-05-17T02:06:34.065Z,18.05
2023-05-17T02:09:37.970Z,18.68
2023-05-17T02:12:42.223Z,18.96
2023-05-17T02:15:45.456Z,19.73
2023-05-17T02:18:49.684Z,20.06
2023-05-17T02:21:53.407Z,19.77
2023-05-17T02:24:57.521Z,19.96
2023-05-17T02:28:00.724Z,20.13
2023-05-17T02:31:04.855Z,20.36
2023-05-17T02:34:08.723Z,20.47
2023-05-17T02:37:13.204Z,21.06
2023-05-17T02:40:17.114Z,21.29
2023-05-17T02:43:21.233Z,22.44
2023-05-17T02:46:24.448Z,23.07
2023-05-17T02:49:28.542Z,21.95
2023-05-17T02:52:32.430Z,21.86
2023-05-17T02:55:36.019Z,22.59
2023-05-17T02:58:39.215Z,23.72
2023-05-17T03:01:43.355Z,24.78
2023-05-17T03:04:47.185Z,25.39
2023-05-17T03:07:51.402Z,25.67
2023-05-17T03:10:55.407Z,25.94
2023-05-17T03:13:59.590Z,26.68
2023-05-17T03:17:06.193Z,27.00
2023-05-17T03:20:11.916Z,26.66
2023-05-17T03:23:15.924Z,26.48
2023-05-17T03:26:28.541Z,25.95
2023-05-17T03:29:32.278Z,25.00
2023-05-17T03:32:35.990Z,24.31
2023-05-17T03:35:39.166Z,24.97
2023-05-17T03:38:42.319Z,24.34
2023-05-17T03:41:45.634Z,23.12
2023-05-17T03:44:51.085Z,22.30
2023-05-17T03:47:56.215Z,21.84
2023-05-17T03:51:02.842Z,22.13
2023-05-17T03:54:06.988Z,22.72
2023-05-17T03:57:10.765Z,23.12
2023-05-17T04:00:14.863Z,23.46
2023-05-17T04:03:19.971Z,22.79
2023-05-17T04:06:24.333Z,22.91
2023-05-17T04:09:29.608Z,22.77
2023-05-17T04:12:32.762Z,22.20
2023-05-17T04:15:37.337Z,22.12
2023-05-17T04:18:42.425Z,23.56
2023-05-17T04:21:48.472Z,24.24
2023-05-17T04:24:51.859Z,24.88
2023-05-17T04:27:56.757Z,25.02
2023-05-17T04:31:00.673Z,24.61
2023-05-17T04:34:03.949Z,23.29
2023-05-17T04:37:08.318Z,23.59
2023-05-17T04:40:15.099Z,24.46
2023-05-17T04:43:19.554Z,23.95
2023-05-17T04:46:23.383Z,25.84
2023-05-17T04:49:27.336Z,26.83
2023-05-17T04:52:33.452Z,27.74
2023-05-17T04:55:38.555Z,26.48
2023-05-17T04:58:42.382Z,28.29
2023-05-17T05:01:45.558Z,29.25
2023-05-17T05:04:48.890Z,28.84
2023-05-17T05:07:53.462Z,30.05
2023-05-17T05:10:57.718Z,30.75
2023-05-17T05:14:01.863Z,30.70
2023-05-17T05:17:06.009Z,29.07
2023-05-17T05:20:11.455Z,30.06
2023-05-17T05:23:14.906Z,32.10
2023-05-17T05:26:22.276Z,30.34
2023-05-17T05:29:26.870Z,28.29
2023-05-17T05:32:30.653Z,27.24
2023-05-17T05:35:33.928Z,26.47
2023-05-17T05:38:38.161Z,27.22
2023-05-17T05:41:42.785Z,26.27
2023-05-17T05:44:46.012Z,23.24
2023-05-17T05:47:51.454Z,23.52
2023-05-17T05:50:55.240Z,26.29
2023-05-17T05:54:01.215Z,26.31
2023-05-17T05:57:04.686Z,24.75
2023-05-17T06:00:10.183Z,23.64
2023-05-17T06:03:16.703Z,25.33
2023-05-17T06:06:20.698Z,25.02
2023-05-17T06:09:24.431Z,26.79
2023-05-17T06:12:27.794Z,27.62
2023-05-17T06:15:32.495Z,30.46
2023-05-17T06:18:36.901Z,31.42
2023-05-17T06:21:40.289Z,33.21
2023-05-17T06:24:44.408Z,32.65
2023-05-17T06:27:48.332Z,29.77
2023-05-17T06:30:51.582Z,28.07
2023-05-17T06:33:54.770Z,31.28
2023-05-17T06:36:58.334Z,34.31
2023-05-17T06:40:16.502Z,35.77
2023-05-17T06:43:36.527Z,33.69
2023-05-17T06:46:40.780Z,32.18
2023-05-17T06:49:44.721Z,33.51
2023-05-17T06:52:48.382Z,31.07
2023-05-17T06:55:52.107Z,30.95
2023-05-17T06:58:55.299Z,31.97
2023-05-17T07:02:01.118Z,31.17
2023-05-17T07:05:07.510Z,32.05
2023-05-17T07:08:11.326Z,28.89
2023-05-17T07:11:14.517Z,30.39
2023-05-17T07:14:17.568Z,33.46
2023-05-17T07:17:20.619Z,35.56
2023-05-17T07:20:23.942Z,36.88
2023-05-17T07:23:27.173Z,38.54
2023-05-17T07:26:33.812Z,39.94
2023-05-17T07:29:37.338Z,39.78
2023-05-17T07:32:42.619Z,38.58
2023-05-17T07:35:46.594Z,38.16
2023-05-17T07:38:49.713Z,38.10
2023-05-17T07:41:52.726Z,35.99
2023-05-17T07:44:56.502Z,34.75
2023-05-17T07:48:01.143Z,36.60
2023-05-17T07:51:04.861Z,36.95
2023-05-17T07:54:08.741Z,36.72
2023-05-17T07:57:12.855Z,37.32
2023-05-17T08:00:19.780Z,33.75
2023-05-17T08:03:24.649Z,34.51
2023-05-17T08:06:27.939Z,36.93
2023-05-17T08:09:31.448Z,33.06
2023-05-17T08:12:34.953Z,30.24
2023-05-17T08:15:38.432Z,29.40
2023-05-17T08:18:43.039Z,27.79
2023-05-17T08:21:50.248Z,26.32
2023-05-17T08:24:54.111Z,25.61
2023-05-17T08:27:57.515Z,25.27
2023-05-17T08:31:01.237Z,26.40
2023-05-17T08:34:04.444Z,24.77
2023-05-17T08:37:08.227Z,24.82
2023-05-17T08:40:11.804Z,26.59
2023-05-17T08:43:16.712Z,26.66
2023-05-17T08:46:23.357Z,25.37
2023-05-17T08:49:30.143Z,24.72
2023-05-17T08:52:33.718Z,25.15
2023-05-17T08:55:37.955Z,25.95
2023-05-17T08:58:55.634Z,28.47
2023-05-17T09:02:01.706Z,28.02
2023-05-17T09:05:07.412Z,25.79
2023-05-17T09:08:14.469Z,22.89
2023-05-17T09:11:27.545Z,22.77
2023-05-17T09:14:38.372Z,22.11
2023-05-17T09:17:43.867Z,22.19
2023-05-17T09:20:54.225Z,23.14
2023-05-17T09:24:06.982Z,25.48
2023-05-17T09:27:19.554Z,28.71
2023-05-17T09:30:31.512Z,31.23
2023-05-17T09:33:35.554Z,31.48
2023-05-17T09:36:42.694Z,30.60
2023-05-17T09:39:48.356Z,30.92
2023-05-17T09:42:51.533Z,30.28
2023-05-17T09:45:59.307Z,30.43
2023-05-17T09:49:07.635Z,29.90
2023-05-17T09:52:11.765Z,30.50
2023-05-17T09:55:16.492Z,30.59
2023-05-17T09:58:20.835Z,29.62
2023-05-17T10:01:27.393Z,28.81
2023-05-17T10:04:34.994Z,26.91
2023-05-17T10:07:38.332Z,27.02
2023-05-17T10:10:43.179Z,25.81
2023-05-17T10:14:13.039Z,25.13
2023-05-17T10:17:18.939Z,23.77
2023-05-17T10:20:22.781Z,23.26
2023-05-17T10:23:28.218Z,22.64
2023-05-17T10:26:32.392Z,22.00
2023-05-17T10:29:35.817Z,21.76
2023-05-17T10:32:39.112Z,21.44
2023-05-17T10:35:45.304Z,21.43
2023-05-17T10:38:49.134Z,21.57
2023-05-17T10:41:55.751Z,21.47
2023-05-17T10:45:07.599Z,21.37
2023-05-17T10:48:12.423Z,21.29
2023-05-17T10:51:17.358Z,21.08
2023-05-17T10:54:20.557Z,20.95
2023-05-17T11:00:49.512Z,20.53
2023-05-17T11:03:56.019Z,20.16
2023-05-17T11:07:24.591Z,20.02
2023-05-17T11:10:28.227Z,19.67
2023-05-17T11:13:32.361Z,19.45
2023-05-17T11:16:38.143Z,19.22
2023-05-17T11:19:54.256Z,19.18
2023-05-17T11:23:05.953Z,19.03
2023-05-17T11:26:24.151Z,18.95
2023-05-17T11:29:31.224Z,18.87
2023-05-17T11:32:35.566Z,18.64
2023-05-17T11:35:40.085Z,18.51
2023-05-17T11:38:43.973Z,18.42
2023-05-17T11:41:55.555Z,18.34
2023-05-17T11:45:01.936Z,18.23
2023-05-17T11:48:06.563Z,18.11
2023-05-17T11:51:16.890Z,17.99
2023-05-17T11:54:23.679Z,17.88
2023-05-17T11:57:33.505Z,17.71
2023-05-17T12:00:39.241Z,17.54
2023-05-17T12:03:43.418Z,17.36
2023-05-17T12:06:47.403Z,17.28
2023-05-17T12:09:51.890Z,17.18
2023-05-17T12:12:57.258Z,17.03
2023-05-17T12:16:03.986Z,16.94
2023-05-17T12:19:22.328Z,16.91
2023-05-17T12:22:25.884Z,16.75
2023-05-17T12:25:30.240Z,16.65
2023-05-17T12:28:33.912Z,16.56
2023-05-17T12:31:41.139Z,16.51
2023-05-17T12:34:44.382Z,16.41
2023-05-17T12:37:47.951Z,16.21
2023-05-17T12:40:51.411Z,16.11
2023-05-17T12:44:06.327Z,15.95
2023-05-17T12:47:17.559Z,15.75
2023-05-17T12:50:33.447Z,15.66
2023-05-17T12:53:42.297Z,15.56
2023-05-17T12:56:46.095Z,15.45
2023-05-17T12:59:55.791Z,15.35
2023-05-17T13:02:59.211Z,15.13
2023-05-17T13:09:50.600Z,15.09
2023-05-17T13:13:00.924Z,15.06
2023-05-17T13:16:05.361Z,14.94
2023-05-17T13:19:15.510Z,14.88
2023-05-17T13:22:18.879Z,14.80
2023-05-17T13:25:23.016Z,14.74
2023-05-17T13:28:26.943Z,14.68
2023-05-17T13:31:30.320Z,14.65
2023-05-17T13:34:33.523Z,14.63
2023-05-17T13:37:37.868Z,14.56
2023-05-17T13:40:41.915Z,14.50
2023-05-17T13:43:45.420Z,14.44
2023-05-17T13:46:48.603Z,14.32
2023-05-17T13:49:52.797Z,14.22
2023-05-17T13:52:55.952Z,14.14
2023-05-17T13:55:59.384Z,14.08
2023-05-17T13:59:03.840Z,14.03
2023-05-17T14:02:07.392Z,14.07
2023-05-17T14:05:11.185Z,13.97
2023-05-17T14:08:14.894Z,13.89
2023-05-17T14:11:17.963Z,13.75
2023-05-17T14:14:21.449Z,13.59
2023-05-17T14:17:24.474Z,13.61
2023-05-17T14:20:28.235Z,13.58
2023-05-17T14:23:32.340Z,13.53
2023-05-17T14:26:36.127Z,13.58
2023-05-17T14:29:39.390Z,13.62
2023-05-17T14:32:42.941Z,13.71
2023-05-17T14:35:46.052Z,13.71
2023-05-17T14:38:49.577Z,13.71
2023-05-17T14:41:52.814Z,13.73
2023-05-17T14:44:57.047Z,13.78
2023-05-17T14:48:00.063Z,13.85
2023-05-17T14:51:04.800Z,13.83
2023-05-17T14:54:08.249Z,13.80
2023-05-17T14:57:13.070Z,13.67
2023-05-17T15:00:16.809Z,13.58
2023-05-17T15:03:22.268Z,13.41
2023-05-17T15:06:26.731Z,13.41
2023-05-17T15:09:31.992Z,13.38
2023-05-17T15:12:35.639Z,13.37
2023-05-17T15:15:39.367Z,13.31
2023-05-17T15:18:43.465Z,13.27
2023-05-17T15:21:47.648Z,13.19
2023-05-17T15:24:50.810Z,13.03
2023-05-17T15:27:54.313Z,12.75
2023-05-17T15:31:06.950Z,12.30
2023-05-17T15:34:10.505Z,12.05
2023-05-17T15:37:14.364Z,11.53
2023-05-17T15:40:19.553Z,11.38
2023-05-17T15:43:23.235Z,11.49
2023-05-17T15:46:26.906Z,11.55
2023-05-17T15:49:30.122Z,11.63
2023-05-17T15:52:33.699Z,11.64
2023-05-17T15:55:37.496Z,11.62
2023-05-17T15:58:41.907Z,11.56
2023-05-17T16:01:46.948Z,11.49
2023-05-17T16:04:51.466Z,11.47
2023-05-17T16:07:55.209Z,11.52
2023-05-17T16:11:01.391Z,11.54
2023-05-17T16:14:05.298Z,11.49
2023-05-17T16:17:08.762Z,11.38
2023-05-17T16:20:12.864Z,11.34
2023-05-17T16:23:16.239Z,11.29
2023-05-17T16:26:20.021Z,11.26
2023-05-17T16:29:23.638Z,11.18
2023-05-17T16:32:26.997Z,11.10
2023-05-17T16:35:30.703Z,10.98
2023-05-17T16:38:33.767Z,10.93
2023-05-17T16:41:37.177Z,10.71
2023-05-17T16:44:40.271Z,10.59
2023-05-17T16:47:43.750Z,10.53
2023-05-17T16:50:46.948Z,10.43
2023-05-17T16:53:51.058Z,10.27
2023-05-17T16:56:55.005Z,9.88
2023-05-17T16:59:59.020Z,9.98
2023-05-17T17:03:02.476Z,9.87
2023-05-17T17:06:06.181Z,9.62
2023-05-17T17:09:11.313Z,9.52
2023-05-17T17:12:24.087Z,9.39
2023-05-17T17:15:29.509Z,9.33
2023-05-17T17:18:33.060Z,9.34
2023-05-17T17:21:37.319Z,9.34
2023-05-17T17:24:40.715Z,9.34
2023-05-17T17:27:43.883Z,9.35
2023-05-17T17:30:48.563Z,9.41
2023-05-17T17:33:52.929Z,9.45
2023-05-17T17:36:56.723Z,9.48
2023-05-17T17:39:59.798Z,9.46
2023-05-17T17:43:03.205Z,9.47
2023-05-17T17:46:06.244Z,9.42
2023-05-17T17:49:09.575Z,9.30
2023-05-17T17:52:12.690Z,9.19
2023-05-17T17:55:16.309Z,9.11
2023-05-17T17:58:19.348Z,9.02
2023-05-17T18:01:24.356Z,8.92
2023-05-17T18:04:27.499Z,8.93
2023-05-17T18:07:32.332Z,8.88
2023-05-17T18:10:35.535Z,8.79
2023-05-17T18:13:39.019Z,8.73
2023-05-17T18:16:42.588Z,8.73
2023-05-17T18:19:48.059Z,8.68
2023-05-17T18:22:51.677Z,8.65
2023-05-17T18:25:55.010Z,8.62
2023-05-17T18:32:02.561Z,8.56
2023-05-17T18:35:06.180Z,8.41
2023-05-17T18:38:10.222Z,8.16
2023-05-17T18:41:13.329Z,8.11
2023-05-17T18:44:17.988Z,8.09
2023-05-17T18:47:24.077Z,8.05
2023-05-17T18:50:27.662Z,7.95
2023-05-17T18:53:31.027Z,7.93
2023-05-17T18:56:34.403Z,7.87
2023-05-17T18:59:38.613Z,7.63
2023-05-17T19:02:42.866Z,7.54
2023-05-17T19:05:46.572Z,7.41
2023-05-17T19:08:52.242Z,7.33
2023-05-17T19:11:56.935Z,7.27
2023-05-17T19:15:00.303Z,7.20
2023-05-17T19:18:03.411Z,7.21
2023-05-17T19:21:06.856Z,7.22
2023-05-17T19:24:10.120Z,7.18
2023-05-17T19:27:17.836Z,7.11
2023-05-17T19:30:20.999Z,6.99
2023-05-17T19:33:24.396Z,6.94
2023-05-17T19:36:27.520Z,6.92
2023-05-17T19:39:30.934Z,6.97
2023-05-17T19:42:34.312Z,6.99
2023-05-17T19:45:37.724Z,7.05
2023-05-17T19:48:40.854Z,7.01
2023-05-17T19:51:44.632Z,7.05
2023-05-17T19:54:47.604Z,7.02
2023-05-17T19:57:52.253Z,7.01
2023-05-17T20:00:55.382Z,6.88
2023-05-17T20:03:59.290Z,6.84
2023-05-17T20:07:03.501Z,6.77
2023-05-17T20:10:08.646Z,6.79
2023-05-17T20:13:12.329Z,6.76
2023-05-17T20:16:16.748Z,6.63
2023-05-17T20:19:20.854Z,6.62
2023-05-17T20:22:24.504Z,6.60
2023-05-17T20:25:27.627Z,6.66
2023-05-17T20:28:32.777Z,6.61
2023-05-17T20:31:38.226Z,6.69
2023-05-17T20:34:41.820Z,6.62
2023-05-17T20:37:44.827Z,6.66
2023-05-17T20:40:49.269Z,6.66
2023-05-17T20:43:53.047Z,6.76
2023-05-17T20:46:57.925Z,6.89
2023-05-17T20:50:01.138Z,6.92
2023-05-17T20:53:05.112Z,6.98
2023-05-17T20:56:08.435Z,7.05
2023-05-17T20:59:11.878Z,7.07
2023-05-17T21:02:15.642Z,7.06
2023-05-17T21:05:19.131Z,7.07
2023-05-17T21:08:22.779Z,6.96
2023-05-17T21:11:26.660Z,6.96
2023-05-17T21:14:30.369Z,6.83
2023-05-17T21:17:34.057Z,6.90
2023-05-17T21:20:39.415Z,6.94
2023-05-17T21:23:42.400Z,6.96
2023-05-17T21:26:46.156Z,7.19
2023-05-17T21:29:49.924Z,7.24
2023-05-17T21:32:53.108Z,7.17
2023-05-17T21:35:56.706Z,7.13
2023-05-17T21:39:00.551Z,7.04
2023-05-17T21:42:03.874Z,7.14
2023-05-17T21:45:07.608Z,7.11
2023-05-17T21:48:11.470Z,7.17
2023-05-17T21:51:15.979Z,7.08
2023-05-17T21:54:19.116Z,6.97
2023-05-17T21:57:22.243Z,7.06
2023-05-17T22:00:29.392Z,7.20
2023-05-17T22:03:32.781Z,7.50
2023-05-17T22:06:36.464Z,7.60
2023-05-17T22:09:41.025Z,7.59
2023-05-17T22:12:44.968Z,7.63
2023-05-17T22:15:49.408Z,7.69
2023-05-17T22:18:55.428Z,7.72
2023-05-17T22:21:58.505Z,7.79
2023-05-17T22:25:02.178Z,7.89
2023-05-17T22:28:05.436Z,8.03
2023-05-17T22:31:08.698Z,8.13
2023-05-17T22:34:12.470Z,8.32
2023-05-17T22:37:18.554Z,8.53
2023-05-17T22:40:22.096Z,8.60
2023-05-17T22:43:26.906Z,8.71
2023-05-17T22:46:32.585Z,8.72
2023-05-17T22:49:37.071Z,8.92
2023-05-17T22:52:41.798Z,8.90
2023-05-17T22:55:49.633Z,8.75
2023-05-17T22:58:53.886Z,8.74
2023-05-17T23:01:57.957Z,8.72
2023-05-17T23:05:04.462Z,8.64
2023-05-17T23:08:10.675Z,8.68
2023-05-17T23:11:14.880Z,8.87
2023-05-17T23:14:18.814Z,8.95
2023-05-17T23:17:23.229Z,9.02
2023-05-17T23:20:27.379Z,9.09
2023-05-17T23:23:30.696Z,9.13
2023-05-17T23:26:34.586Z,9.17
2023-05-17T23:29:37.850Z,9.26
2023-05-17T23:32:43.093Z,9.46
2023-05-17T23:35:47.163Z,9.54
2023-05-17T23:38:50.172Z,9.73
2023-05-17T23:41:53.244Z,9.78
2023-05-17T23:44:56.422Z,9.97
2023-05-17T23:48:01.056Z,10.10
2023-05-17T23:51:05.480Z,10.19
2023-05-17T23:54:09.192Z,10.24
2023-05-17T23:57:12.587Z,10.29
